Time;durP1;ratioP1;P1;durP2;ratioP2;P2;SDS_P1;SDS_P2;PMS_P1;PMS_P2;Temp;Humidity;BMP_temperature;BMP_pressure;BME280_temperature;BME280_humidity;BME280_pressure;Samples;Min_cycle;Max_cycle;Signal;HPM_P1;HPM_P2
2022/09/12 00:00:21;;;;;;;10.93;6.60;;;;;;;11.32;57.96;100208.16;4862840;29;20575;-80
2022/09/12 00:02:52;;;;;;;11.18;7.53;;;;;;;11.43;58.52;100222.03;4837917;29;20505;-79
2022/09/12 00:05:18;;;;;;;11.32;7.53;;;;;;;11.44;58.56;100224.59;4865766;29;20082;-77
2022/09/12 00:07:44;;;;;;;10.27;6.80;;;;;;;11.43;58.19;100219.41;4850597;29;20057;-78
2022/09/12 00:10:10;;;;;;;13.43;7.80;;;;;;;11.49;58.33;100223.72;4837955;29;20968;-77
2022/09/12 00:12:38;;;;;;;10.50;7.78;;;;;;;11.41;58.40;100216.81;4861652;29;20116;-80
2022/09/12 00:15:05;;;;;;;12.52;7.47;;;;;;;11.35;58.25;100232.50;4852510;29;20136;-80
2022/09/12 00:17:36;;;;;;;11.70;7.68;;;;;;;11.34;58.62;100214.25;4851606;29;20049;-79
2022/09/12 00:20:05;;;;;;;14.77;8.95;;;;;;;11.17;58.72;100219.53;4853681;29;20136;-81
2022/09/12 00:22:31;;;;;;;10.63;7.60;;;;;;;11.12;59.43;100197.00;4866056;29;20461;-79
2022/09/12 00:24:57;;;;;;;10.48;7.80;;;;;;;11.22;59.53;100204.75;4837994;29;20041;-79
2022/09/12 00:27:23;;;;;;;12.80;8.10;;;;;;;11.30;59.82;100202.97;4855561;29;20055;-77
2022/09/12 00:29:49;;;;;;;10.70;7.63;;;;;;;11.26;59.77;100193.44;4854504;29;20145;-81
2022/09/12 00:32:15;;;;;;;13.00;7.78;;;;;;;11.22;59.44;100189.13;4854804;29;20136;-77
2022/09/12 00:34:41;;;;;;;13.23;7.05;;;;;;;11.22;60.04;100190.00;4849139;29;20052;-82
2022/09/12 00:37:07;;;;;;;9.82;6.82;;;;;;;11.20;59.98;100191.75;4851177;29;20054;-78
2022/09/12 00:39:33;;;;;;;12.32;7.32;;;;;;;11.21;59.97;100184.78;4852298;29;20048;-82
2022/09/12 00:41:59;;;;;;;12.90;7.20;;;;;;;11.19;59.90;100179.59;4851006;29;20053;-79
2022/09/12 00:44:26;;;;;;;10.93;6.95;;;;;;;11.27;59.89;100185.63;4853404;29;20045;-77
2022/09/12 00:46:58;;;;;;;11.00;7.28;;;;;;;11.28;59.99;100179.53;4848852;29;20056;-80
2022/09/12 00:49:45;;;;;;;14.70;7.97;;;;;;;11.25;59.61;100183.91;4851133;29;20133;-80
2022/09/12 00:52:27;;;;;;;14.55;8.27;;;;;;;11.19;59.82;100178.72;4850891;29;20061;-78
2022/09/12 00:55:22;;;;;;;15.20;9.13;;;;;;;11.17;60.00;100185.66;4856889;29;20370;-79
2022/09/12 00:58:13;;;;;;;11.75;7.32;;;;;;;11.19;60.04;100179.59;4866864;29;20540;-77
2022/09/12 01:00:39;;;;;;;11.63;6.85;;;;;;;11.21;60.06;100187.38;4852958;29;20509;-78
2022/09/12 01:03:10;;;;;;;14.07;7.20;;;;;;;11.21;60.21;100188.28;4850925;29;20220;-77
2022/09/12 01:05:43;;;;;;;9.63;6.53;;;;;;;11.13;59.76;100179.63;4850196;29;20048;-80
2022/09/12 01:08:10;;;;;;;9.70;7.25;;;;;;;11.21;60.10;100195.19;4848431;29;20041;-78
2022/09/12 01:10:39;;;;;;;15.73;7.78;;;;;;;11.17;60.05;100196.09;4850237;29;20666;-79
2022/09/12 01:13:07;;;;;;;13.95;8.13;;;;;;;11.09;60.21;100194.41;4866490;29;20052;-79
2022/09/12 01:15:35;;;;;;;12.85;7.35;;;;;;;11.08;60.23;100186.59;4869662;29;20464;-78
2022/09/12 01:18:07;;;;;;;12.60;7.00;;;;;;;11.02;60.17;100184.03;4850968;29;20308;-78
2022/09/12 01:21:07;;;;;;;12.00;7.60;;;;;;;11.09;60.50;100194.41;4821703;29;20046;-78
2022/09/12 01:24:09;;;;;;;13.05;7.43;;;;;;;11.09;60.41;100193.53;4854214;29;20097;-78
2022/09/12 01:26:57;;;;;;;12.98;8.05;;;;;;;11.05;60.74;100187.47;4840009;29;20580;-78
2022/09/12 01:29:44;;;;;;;12.82;7.32;;;;;;;11.05;60.75;100186.59;4850752;29;20102;-78
2022/09/12 01:32:37;;;;;;;12.45;7.50;;;;;;;11.07;60.87;100183.13;4852581;29;20133;-78
2022/09/12 01:35:09;;;;;;;10.73;7.53;;;;;;;11.09;60.98;100185.72;4853115;29;20093;-78
2022/09/12 01:37:58;;;;;;;12.45;7.65;;;;;;;11.06;61.51;100184.00;4853685;29;20046;-79
2022/09/12 01:40:34;;;;;;;12.35;7.90;;;;;;;11.05;61.54;100182.25;4852478;29;20045;-79
2022/09/12 01:43:18;;;;;;;14.68;8.07;;;;;;;11.09;61.62;100189.19;4851107;29;20073;-79
2022/09/12 01:45:50;;;;;;;10.93;7.68;;;;;;;11.08;62.15;100187.47;4865513;29;20550;-79
2022/09/12 01:48:19;;;;;;;;;;;;;;;11.08;62.26;100181.38;4866557;29;20049;-78
2022/09/12 01:51:05;;;;;;;11.90;7.95;;;;;;;11.06;61.74;100184.00;4836981;29;20027;-78
2022/09/12 01:53:41;;;;;;;15.18;8.25;;;;;;;10.93;61.58;100187.50;4833751;29;20058;-77
2022/09/12 01:56:12;;;;;;;13.57;8.25;;;;;;;10.77;62.25;100176.31;4852830;29;20056;-80
2022/09/12 01:58:53;;;;;;;16.83;9.20;;;;;;;10.79;62.82;100180.63;4853653;29;21089;-79
2022/09/12 02:01:26;;;;;;;14.27;9.13;;;;;;;10.80;63.14;100177.16;4852199;29;20049;-79
2022/09/12 02:04:16;;;;;;;12.77;8.18;;;;;;;10.82;62.92;100188.44;4850793;29;20065;-79
2022/09/12 02:06:51;;;;;;;13.52;8.65;;;;;;;10.82;63.14;100188.44;4851763;29;20239;-78
2022/09/12 02:09:20;;;;;;;14.65;8.65;;;;;;;10.84;63.64;100189.31;4852161;29;20045;-77
2022/09/12 02:11:49;;;;;;;16.45;8.98;;;;;;;10.71;63.28;100190.19;4852780;29;20168;-78
2022/09/12 02:14:27;;;;;;;17.17;8.70;;;;;;;10.45;63.46;100174.66;4867385;29;20497;-80
2022/09/12 02:17:15;;;;;;;14.60;9.70;;;;;;;10.34;64.06;100182.47;4852104;29;20080;-78
2022/09/12 02:20:07;;;;;;;17.98;9.88;;;;;;;10.15;64.13;100171.22;4859299;29;20041;-81
2022/09/12 02:22:36;;;;;;;13.00;8.93;;;;;;;10.30;65.13;100189.41;4862230;29;20058;-79
2022/09/12 02:25:05;;;;;;;19.88;10.18;;;;;;;10.37;65.25;100174.66;4851663;29;20069;-78
2022/09/12 02:27:39;;;;;;;20.23;10.57;;;;;;;10.39;64.37;100166.00;4839670;29;20045;-78
2022/09/12 02:30:08;;;;;;;19.90;10.13;;;;;;;10.39;64.87;100188.56;4852180;29;20047;-78
2022/09/12 02:32:39;;;;;;;16.00;9.23;;;;;;;10.42;65.20;100185.06;4851087;29;20049;-77
2022/09/12 02:35:30;;;;;;;17.30;9.23;;;;;;;10.50;65.19;100186.78;4865608;29;20049;-77
2022/09/12 02:37:59;;;;;;;15.48;9.88;;;;;;;10.52;65.57;100179.84;4854879;29;20045;-78
2022/09/12 02:40:25;;;;;;;13.70;9.52;;;;;;;10.50;65.69;100184.19;4853263;29;20042;-78
2022/09/12 02:42:51;;;;;;;16.65;9.45;;;;;;;10.44;65.19;100179.00;4858310;29;20565;-78
2022/09/12 02:45:18;;;;;;;17.40;10.00;;;;;;;10.27;65.17;100185.94;4856060;29;20048;-79
2022/09/12 02:47:51;;;;;;;23.98;11.32;;;;;;;10.08;66.05;100180.75;4851037;29;20053;-80
2022/09/12 02:50:18;;;;;;;18.13;9.70;;;;;;;10.09;66.50;100185.09;4850576;29;20045;-78
2022/09/12 02:52:45;;;;;;;21.80;9.90;;;;;;;10.19;66.65;100184.22;4835212;29;20089;-78
2022/09/12 02:55:12;;;;;;;24.23;10.23;;;;;;;10.23;66.73;100174.69;4850045;29;20053;-79
2022/09/12 02:57:39;;;;;;;22.95;10.63;;;;;;;10.31;66.66;100172.06;4854927;29;20052;-77
2022/09/12 03:00:06;;;;;;;23.45;10.70;;;;;;;10.43;66.56;100192.91;4852559;29;20034;-79
2022/09/12 03:02:57;;;;;;;24.55;10.88;;;;;;;10.34;65.87;100190.25;4850539;29;20064;-76
2022/09/12 03:05:33;;;;;;;20.35;10.82;;;;;;;10.19;66.51;100189.44;4854821;29;20049;-77
2022/09/12 03:08:27;;;;;;;22.77;12.23;;;;;;;10.14;66.33;100188.56;4853804;29;20421;-79
2022/09/12 03:11:02;;;;;;;21.15;11.85;;;;;;;10.22;66.63;100183.34;4837390;29;20042;-79
2022/09/12 03:13:51;;;;;;;25.80;12.15;;;;;;;10.17;66.83;100190.28;4853881;29;20140;-78
2022/09/12 03:16:38;;;;;;;24.80;12.45;;;;;;;10.06;66.63;100182.47;4851400;29;20090;-79
2022/09/12 03:19:07;;;;;;;21.92;11.77;;;;;;;10.07;67.16;100186.81;4850107;29;20098;-79
2022/09/12 03:21:57;;;;;;;19.15;13.10;;;;;;;9.99;67.56;100188.56;4851248;29;20159;-80
2022/09/12 03:24:41;;;;;;;25.38;14.02;;;;;;;9.95;67.76;100185.97;4860368;29;20524;-78
2022/09/12 03:27:12;;;;;;;16.45;12.00;;;;;;;9.86;67.27;100185.09;4852499;29;20498;-81
2022/09/12 03:29:40;;;;;;;17.38;12.23;;;;;;;9.80;67.49;100179.03;4849028;29;20060;-78
2022/09/12 03:32:06;;;;;;;17.30;11.68;;;;;;;9.74;67.36;100186.81;4848790;29;20049;-78
2022/09/12 03:34:32;;;;;;;20.63;13.20;;;;;;;9.74;68.42;100173.81;4849394;29;20060;-78
2022/09/12 03:36:58;;;;;;;18.20;11.95;;;;;;;9.72;68.54;100153.91;4850821;29;20120;-77
2022/09/12 03:39:25;;;;;;;21.40;12.60;;;;;;;9.95;68.73;100175.56;4852408;29;20089;-78
2022/09/12 03:41:53;;;;;;;18.48;11.35;;;;;;;10.07;68.20;100174.69;4867704;29;21154;-78
2022/09/12 03:44:19;;;;;;;19.67;11.50;;;;;;;10.19;68.65;100176.44;4852902;29;20084;-79
2022/09/12 03:46:45;;;;;;;23.65;13.63;;;;;;;10.31;68.69;100166.84;4851850;29;20037;-79
2022/09/12 03:49:11;;;;;;;23.83;12.65;;;;;;;10.38;68.25;100159.06;4850877;29;20713;-81
2022/09/12 03:51:38;;;;;;;16.42;10.07;;;;;;;10.52;68.31;100172.03;4853577;29;20065;-79
2022/09/12 03:54:05;;;;;;;20.23;11.02;;;;;;;10.47;67.71;100160.81;4869197;29;20099;-77
2022/09/12 03:56:32;;;;;;;16.58;9.88;;;;;;;10.18;67.60;100117.47;4838108;29;21080;-80
2022/09/12 03:58:58;;;;;;;16.48;9.40;;;;;;;10.44;68.31;100162.53;4868265;29;20525;-80
2022/09/12 04:01:23;;;;;;;13.82;9.77;;;;;;;10.37;67.85;100161.66;4851319;29;20057;-77
2022/09/12 04:03:51;;;;;;;15.98;9.10;;;;;;;10.32;67.21;100171.19;4852763;29;20186;-78
2022/09/12 04:06:21;;;;;;;13.48;8.98;;;;;;;10.27;67.97;100165.13;4861664;29;20049;-78
2022/09/12 04:08:50;;;;;;;13.95;9.07;;;;;;;10.32;67.91;100177.28;4838874;29;20108;-79
2022/09/12 04:11:21;;;;;;;15.15;10.00;;;;;;;10.19;67.86;100166.03;4854086;29;20398;-78
2022/09/12 04:13:47;;;;;;;15.52;9.75;;;;;;;10.28;68.07;100179.84;4855281;29;20482;-79
2022/09/12 04:16:15;;;;;;;15.80;9.70;;;;;;;10.34;68.22;100166.84;4841230;29;20070;-79
2022/09/12 04:18:42;;;;;;;13.63;9.82;;;;;;;10.42;67.47;100169.47;4851372;29;20060;-80
2022/09/12 04:21:10;;;;;;;13.75;9.23;;;;;;;10.47;68.30;100168.59;4874096;29;20041;-78
2022/09/12 04:23:37;;;;;;;15.63;9.80;;;;;;;10.43;68.35;100166.88;4869178;29;20045;-79
2022/09/12 04:26:06;;;;;;;15.10;9.20;;;;;;;10.38;68.10;100164.25;4866554;29;20532;-80
2022/09/12 04:28:34;;;;;;;16.02;10.48;;;;;;;10.33;67.59;100172.91;4849063;29;20458;-79
2022/09/12 04:31:06;;;;;;;17.10;9.68;;;;;;;10.28;68.29;100161.66;4845386;29;20467;-78
2022/09/12 04:33:34;;;;;;;16.67;9.15;;;;;;;10.28;68.41;100177.25;4849304;29;20049;-77
2022/09/12 04:36:08;;;;;;;11.90;9.27;;;;;;;10.12;68.12;100161.69;4862999;29;20144;-80
2022/09/12 04:38:35;;;;;;;13.80;9.00;;;;;;;10.05;68.17;100175.56;4849894;29;20057;-76
2022/09/12 04:41:17;;;;;;;14.90;9.00;;;;;;;9.99;68.35;100167.78;4849006;29;20042;-81
2022/09/12 04:43:47;;;;;;;14.65;9.35;;;;;;;10.02;68.89;100175.56;4863642;29;20061;-77
2022/09/12 04:46:18;;;;;;;15.07;9.40;;;;;;;10.07;69.26;100181.63;4854694;29;20048;-78
2022/09/12 04:48:44;;;;;;;14.52;9.25;;;;;;;10.03;68.11;100164.31;4842247;29;20056;-78
2022/09/12 04:51:20;;;;;;;14.40;9.07;;;;;;;10.19;68.91;100175.53;4873489;29;20045;-79
2022/09/12 04:53:49;;;;;;;13.45;9.38;;;;;;;10.15;69.32;100166.88;4854078;29;20058;-81
2022/09/12 04:56:18;;;;;;;13.57;9.57;;;;;;;10.16;68.67;100172.94;4854204;29;20055;-81
2022/09/12 04:58:44;;;;;;;14.82;8.48;;;;;;;10.11;69.01;100157.34;4834981;29;20071;-76
2022/09/12 05:01:13;;;;;;;18.95;10.38;;;;;;;10.35;69.86;100179.00;4852692;29;20042;-79
2022/09/12 05:03:42;;;;;;;16.80;9.65;;;;;;;10.35;68.65;100176.38;4853230;29;20068;-79
2022/09/12 05:06:14;;;;;;;15.77;9.70;;;;;;;10.37;69.47;100169.44;4841258;29;20516;-76
2022/09/12 05:08:41;;;;;;;16.75;8.80;;;;;;;10.30;68.37;100176.41;4855795;29;20061;-83
2022/09/12 05:11:10;;;;;;;13.20;8.85;;;;;;;10.20;68.52;100175.56;4854107;29;20081;-78
2022/09/12 05:13:37;;;;;;;15.02;9.52;;;;;;;10.37;69.56;100177.25;4856675;29;20457;-81
2022/09/12 05:16:05;;;;;;;14.68;8.82;;;;;;;10.50;69.18;100178.97;4836277;29;20046;-78
2022/09/12 05:18:33;;;;;;;15.43;9.38;;;;;;;10.57;69.15;100178.97;4851739;29;20565;-82
2022/09/12 05:21:01;;;;;;;13.88;9.23;;;;;;;10.68;69.61;100154.66;4853288;29;20181;-80
2022/09/12 05:23:28;;;;;;;14.75;8.98;;;;;;;10.65;68.40;100136.44;4851627;29;20514;-82
2022/09/12 05:25:56;;;;;;;12.90;7.97;;;;;;;10.82;69.01;100149.38;4839856;29;20037;-80
2022/09/12 05:28:24;;;;;;;11.82;7.57;;;;;;;10.90;69.21;100153.72;4852324;29;20545;-80
2022/09/12 05:31:26;;;;;;;9.57;7.07;;;;;;;10.95;68.83;100152.81;4852847;29;20045;-81
2022/09/12 05:33:54;;;;;;;11.55;8.10;;;;;;;10.90;68.75;100153.72;4831100;29;20472;-81
2022/09/12 05:36:23;;;;;;;11.55;7.93;;;;;;;10.84;68.25;100155.47;4848869;29;20453;-79
2022/09/12 05:38:51;;;;;;;12.85;8.50;;;;;;;10.80;68.20;100161.53;4866719;29;20124;-79
2022/09/12 05:41:20;;;;;;;12.05;8.10;;;;;;;10.78;68.14;100157.22;4853754;29;20049;-80
2022/09/12 05:43:50;;;;;;;12.95;8.23;;;;;;;10.67;68.42;100149.47;4852659;29;20045;-80
2022/09/12 05:46:19;;;;;;;13.13;8.32;;;;;;;10.68;68.80;100154.66;4836026;29;20084;-81
2022/09/12 05:48:46;;;;;;;15.38;9.15;;;;;;;10.76;68.65;100149.41;4821605;29;20417;-82
2022/09/12 05:51:18;;;;;;;13.57;8.98;;;;;;;10.82;68.08;100159.81;4867812;29;20052;-82
2022/09/12 05:53:50;;;;;;;21.05;12.55;;;;;;;10.73;68.23;100169.38;4851141;29;20056;-79
2022/09/12 05:56:19;;;;;;;21.27;13.20;;;;;;;10.56;68.71;100146.91;4852816;29;20055;-80
2022/09/12 05:58:59;;;;;;;15.50;10.90;;;;;;;10.58;68.52;100155.56;4851741;29;20044;-80
2022/09/12 06:01:26;;;;;;;11.45;9.18;;;;;;;10.60;68.32;100160.75;4852082;29;20053;-80
2022/09/12 06:03:54;;;;;;;12.30;8.38;;;;;;;10.54;69.22;100143.44;4867008;29;20064;-81
2022/09/12 06:06:24;;;;;;;16.48;9.27;;;;;;;10.62;69.08;100138.19;4849827;29;20075;-80
2022/09/12 06:08:53;;;;;;;15.70;9.65;;;;;;;10.55;68.45;100140.81;4851287;29;20041;-79
2022/09/12 06:11:21;;;;;;;12.55;7.70;;;;;;;10.51;68.91;100133.88;4869821;29;20056;-84
2022/09/12 06:13:49;;;;;;;12.82;8.93;;;;;;;10.63;69.05;100152.94;4852194;29;20045;-79
2022/09/12 06:16:17;;;;;;;11.88;8.32;;;;;;;10.70;69.38;100149.44;4857880;29;20105;-79
2022/09/12 06:18:52;;;;;;;11.43;8.50;;;;;;;10.85;69.21;100156.31;4857572;29;20114;-78
2022/09/12 06:21:19;;;;;;;15.63;8.48;;;;;;;10.79;69.57;100140.75;4851616;29;20074;-80
2022/09/12 06:23:46;;;;;;;12.68;8.88;;;;;;;11.06;69.61;100157.97;4853883;29;20124;-79
2022/09/12 06:26:16;;;;;;;14.75;9.23;;;;;;;11.22;69.28;100157.88;4853625;29;20049;-78
2022/09/12 06:28:43;;;;;;;13.02;8.50;;;;;;;11.21;69.20;100156.13;4855629;29;20037;-79
2022/09/12 06:31:18;;;;;;;12.38;7.40;;;;;;;11.18;68.44;100153.53;4853452;29;20052;-81
2022/09/12 06:33:48;;;;;;;8.63;6.93;;;;;;;11.18;68.53;100161.34;4852397;29;20051;-79
2022/09/12 06:36:17;;;;;;;10.07;6.90;;;;;;;11.16;68.72;100153.56;4834100;29;20654;-79
2022/09/12 06:38:47;;;;;;;12.13;7.10;;;;;;;11.20;68.92;100151.78;4838410;29;20045;-79
2022/09/12 06:41:14;;;;;;;8.75;6.10;;;;;;;11.20;68.22;100159.59;4867728;29;20051;-78
2022/09/12 06:43:41;;;;;;;9.88;6.25;;;;;;;11.30;68.72;100169.97;4865067;29;20041;-80
2022/09/12 06:46:09;;;;;;;9.02;5.82;;;;;;;11.39;68.48;100160.38;4860278;29;20520;-79
2022/09/12 06:48:35;;;;;;;7.22;5.45;;;;;;;11.52;68.37;100175.03;4856807;29;20057;-79
2022/09/12 06:51:03;;;;;;;8.82;5.63;;;;;;;11.58;68.66;100177.63;4865910;29;20049;-82
2022/09/12 06:53:32;;;;;;;7.90;5.25;;;;;;;11.40;67.79;100144.72;4881825;29;20044;-80
2022/09/12 06:56:03;;;;;;;8.63;5.80;;;;;;;11.48;68.00;100164.66;4863568;29;20049;-80
2022/09/12 06:58:30;;;;;;;5.82;4.78;;;;;;;11.57;68.44;100178.50;4860178;29;20152;-82
2022/09/12 07:01:21;;;;;;;9.07;5.93;;;;;;;11.61;67.73;100171.50;4844633;29;20389;-80
2022/09/12 07:03:59;;;;;;;7.05;4.97;;;;;;;11.66;68.46;100169.72;4851184;29;20061;-81
2022/09/12 07:06:30;;;;;;;7.15;5.60;;;;;;;11.78;67.39;100167.94;4834418;29;20413;-78
2022/09/12 07:09:01;;;;;;;8.00;6.10;;;;;;;11.86;67.78;100168.72;4857722;29;20445;-79
2022/09/12 07:11:30;;;;;;;8.88;5.50;;;;;;;12.02;67.64;100164.25;4869900;29;20049;-80
2022/09/12 07:13:59;;;;;;;9.20;6.35;;;;;;;12.12;66.14;100189.41;4875397;29;20041;-80
2022/09/12 07:16:25;;;;;;;10.30;5.80;;;;;;;11.93;67.27;100170.41;4857459;29;20098;-79
2022/09/12 07:18:53;;;;;;;9.13;7.35;;;;;;;11.82;66.84;100162.66;4858533;29;20065;-79
2022/09/12 07:21:20;;;;;;;8.02;6.20;;;;;;;11.73;66.48;100166.22;4860343;29;20049;-82
2022/09/12 07:23:46;;;;;;;7.38;6.07;;;;;;;11.68;67.10;100154.94;4874712;29;20041;-80
2022/09/12 07:26:14;;;;;;;10.23;6.63;;;;;;;11.76;67.21;100167.91;4859217;29;20056;-81
2022/09/12 07:28:41;;;;;;;11.02;5.97;;;;;;;11.81;67.43;100173.09;4855408;29;20057;-80
2022/09/12 07:31:13;;;;;;;8.65;6.28;;;;;;;11.71;66.78;100173.19;4873937;29;20109;-80
2022/09/12 07:33:40;;;;;;;8.55;6.55;;;;;;;11.56;67.31;100163.72;4859184;29;20487;-81
2022/09/12 07:36:10;;;;;;;10.68;7.15;;;;;;;11.51;66.99;100180.28;4854948;29;20410;-79
2022/09/12 07:38:37;;;;;;;8.85;6.97;;;;;;;11.27;67.91;100146.53;4857626;29;20067;-83
2022/09/12 07:41:20;;;;;;;11.13;7.30;;;;;;;11.60;67.33;100194.09;4873884;29;20117;-80
2022/09/12 07:43:50;;;;;;;9.48;6.68;;;;;;;11.52;67.94;100177.66;4864597;29;20045;-81
2022/09/12 07:46:16;;;;;;;9.30;6.70;;;;;;;11.53;67.73;100178.53;4860616;29;20077;-79
2022/09/12 07:48:43;;;;;;;9.13;6.63;;;;;;;11.53;67.61;100187.19;4830611;29;20407;-79
2022/09/12 07:51:11;;;;;;;10.50;7.30;;;;;;;11.66;68.27;100180.16;4858767;29;20251;-80
2022/09/12 07:53:39;;;;;;;9.82;6.55;;;;;;;11.99;68.78;100195.59;4867009;29;20041;-79
2022/09/12 07:56:07;;;;;;;10.00;6.80;;;;;;;12.03;67.29;100185.09;4866841;29;20067;-79
2022/09/12 07:58:35;;;;;;;9.15;7.00;;;;;;;12.01;67.56;100166.03;4858656;29;20132;-78
2022/09/12 08:01:06;;;;;;;9.85;7.47;;;;;;;12.18;67.84;100191.94;4860246;29;20077;-82
2022/09/12 08:03:32;;;;;;;10.93;6.75;;;;;;;12.11;66.93;100186.78;4861569;29;20084;-80
2022/09/12 08:06:08;;;;;;;9.27;6.68;;;;;;;12.07;67.27;100172.03;4859543;29;20109;-79
2022/09/12 08:08:36;;;;;;;12.38;7.03;;;;;;;12.25;67.72;100177.06;4850907;29;20446;-78
2022/09/12 08:11:04;;;;;;;12.88;7.47;;;;;;;12.38;67.29;100175.22;4866406;29;20065;-77
2022/09/12 08:13:32;;;;;;;10.27;7.38;;;;;;;12.35;66.27;100178.72;4862340;29;20093;-80
2022/09/12 08:16:00;;;;;;;12.20;7.85;;;;;;;12.24;66.26;100183.22;4838616;29;20085;-79
2022/09/12 08:18:28;;;;;;;17.02;7.95;;;;;;;12.46;66.67;100177.78;4858199;29;20056;-80
2022/09/12 08:20:58;;;;;;;14.63;8.77;;;;;;;12.42;65.98;100170.84;4856435;29;20074;-79
2022/09/12 08:23:27;;;;;;;13.48;8.75;;;;;;;12.50;65.58;100176.81;4860446;29;20041;-82
2022/09/12 08:25:57;;;;;;;14.50;8.65;;;;;;;12.48;65.21;100168.16;4832342;29;20490;-76
2022/09/12 08:28:25;;;;;;;14.98;8.85;;;;;;;12.44;65.97;100169.09;4862044;29;20057;-80
2022/09/12 08:30:52;;;;;;;15.25;9.13;;;;;;;12.43;65.06;100172.56;4859968;29;20098;-81
2022/09/12 08:33:18;;;;;;;18.33;10.10;;;;;;;12.48;65.08;100170.75;4860886;29;20089;-82
2022/09/12 08:35:44;;;;;;;16.45;9.70;;;;;;;12.48;64.86;100170.75;4862544;29;20062;-79
2022/09/12 08:38:10;;;;;;;18.92;10.57;;;;;;;12.41;64.72;100169.13;4845588;29;20097;-79
2022/09/12 08:40:54;;;;;;;16.98;10.23;;;;;;;12.35;64.52;100164.84;4862463;29;20038;-79
2022/09/12 08:43:56;;;;;;;17.88;10.70;;;;;;;12.28;64.56;100165.75;4860422;29;20046;-82
2022/09/12 08:46:30;;;;;;;17.77;10.10;;;;;;;12.39;64.50;100163.91;4829289;29;20038;-80
2022/09/12 08:49:03;;;;;;;16.80;10.23;;;;;;;12.41;64.47;100149.09;4869050;29;20411;-79
2022/09/12 08:51:33;;;;;;;19.35;11.13;;;;;;;12.63;64.02;100169.72;4862868;29;20045;-81
2022/09/12 08:54:01;;;;;;;15.02;10.57;;;;;;;12.75;63.43;100153.94;4878193;29;20109;-78
2022/09/12 08:56:32;;;;;;;18.60;11.50;;;;;;;12.82;63.81;100149.50;4863247;29;20434;-81
2022/09/12 08:58:58;;;;;;;20.15;11.90;;;;;;;12.93;63.52;100147.59;4866691;29;20397;-79
2022/09/12 09:01:40;;;;;;;25.08;12.13;;;;;;;13.11;62.42;100161.31;4848194;29;20052;-80
2022/09/12 09:04:19;;;;;;;19.58;11.70;;;;;;;13.17;62.12;100156.00;4863215;29;20454;-80
2022/09/12 09:07:06;;;;;;;17.95;12.00;;;;;;;13.22;62.21;100140.28;4864919;29;20069;-80
2022/09/12 09:10:06;;;;;;;21.13;12.45;;;;;;;13.29;61.42;100156.72;4864197;29;20064;-79
2022/09/12 09:12:43;;;;;;;22.33;12.20;;;;;;;13.39;61.96;100159.16;4851723;29;20064;-80
2022/09/12 09:15:12;;;;;;;20.13;12.48;;;;;;;13.60;60.89;100165.00;4832962;29;20050;-81
2022/09/12 09:17:43;;;;;;;25.33;14.25;;;;;;;13.68;60.97;100157.03;4848817;29;20046;-78
2022/09/12 09:20:12;;;;;;;25.10;13.00;;;;;;;13.79;61.04;100156.84;4868183;29;20068;-80
2022/09/12 09:23:08;;;;;;;27.85;13.05;;;;;;;14.18;60.49;100162.28;4851602;29;20475;-79
2022/09/12 09:25:47;;;;;;;23.65;13.65;;;;;;;13.98;58.74;100158.25;4850604;29;20049;-80
2022/09/12 09:28:20;;;;;;;26.83;14.65;;;;;;;13.93;58.99;100161.84;4866930;29;20105;-80
2022/09/12 09:30:49;;;;;;;23.58;14.85;;;;;;;13.80;58.79;100153.34;4868776;29;20466;-81
2022/09/12 09:33:25;;;;;;;26.25;14.48;;;;;;;14.10;59.20;100138.88;4852023;29;20053;-80
2022/09/12 09:36:05;;;;;;;25.23;14.40;;;;;;;14.59;57.99;100139.69;4850715;29;20041;-81
2022/09/12 09:38:43;;;;;;;23.58;14.13;;;;;;;14.98;57.09;100162.50;4862306;29;20045;-80
2022/09/12 09:41:26;;;;;;;26.27;15.07;;;;;;;14.65;56.55;100157.03;4862019;29;20048;-78
2022/09/12 09:43:52;;;;;;;25.55;14.85;;;;;;;14.46;56.02;100157.38;4864742;29;20046;-80
2022/09/12 09:46:18;;;;;;;35.90;15.60;;;;;;;14.41;56.26;100167.09;4865586;29;20045;-79
2022/09/12 09:48:48;;;;;;;27.50;15.43;;;;;;;14.15;56.39;100149.25;4867966;29;20041;-79
2022/09/12 09:51:20;;;;;;;27.33;15.48;;;;;;;14.10;56.81;100149.34;4882140;29;20054;-79
2022/09/12 09:54:19;;;;;;;27.77;15.55;;;;;;;14.34;57.00;100160.25;4864941;29;20053;-78
2022/09/12 09:56:45;;;;;;;26.08;15.80;;;;;;;14.33;56.18;100158.53;4864099;29;20051;-77
2022/09/12 09:59:28;;;;;;;26.48;15.50;;;;;;;14.08;56.05;100143.25;4846301;29;20045;-78
2022/09/12 10:01:56;;;;;;;29.40;15.63;;;;;;;13.98;56.10;100165.25;4862473;29;20048;-78
2022/09/12 10:04:28;;;;;;;29.95;15.77;;;;;;;13.84;56.48;100162.88;4862489;29;20049;-78
2022/09/12 10:07:00;;;;;;;26.80;15.80;;;;;;;13.97;56.23;100177.47;4864806;29;20037;-78
2022/09/12 10:09:34;;;;;;;27.60;16.45;;;;;;;13.88;57.09;100163.69;4848084;29;20069;-77
2022/09/12 10:12:19;;;;;;;27.75;16.52;;;;;;;13.86;56.82;100166.31;4858752;29;20162;-78
2022/09/12 10:14:56;;;;;;;26.80;16.65;;;;;;;13.78;56.64;100147.28;4868777;29;20049;-77
2022/09/12 10:17:27;;;;;;;27.20;16.50;;;;;;;13.90;56.79;100154.94;4863468;29;20090;-78
2022/09/12 10:19:54;;;;;;;;;;;;;;;13.95;57.07;100166.16;4830741;29;20060;-79
2022/09/12 10:22:27;;;;;;;30.77;17.60;;;;;;;14.00;56.79;100148.63;4861912;29;19927;-79
2022/09/12 10:24:57;;;;;;;30.35;17.48;;;;;;;14.06;56.68;100145.03;4861046;29;20048;-77
2022/09/12 10:27:34;;;;;;;27.63;15.98;;;;;;;14.21;56.19;100164.84;4860826;29;20042;-78
2022/09/12 10:30:16;;;;;;;29.58;17.13;;;;;;;14.26;56.37;100156.91;4874569;29;20101;-79
2022/09/12 10:32:47;;;;;;;33.17;17.33;;;;;;;14.30;56.98;100150.72;4876550;29;20053;-79
2022/09/12 10:35:21;;;;;;;31.83;17.60;;;;;;;14.81;56.84;100148.91;4864408;29;20034;-80
2022/09/12 10:37:53;;;;;;;32.03;17.23;;;;;;;15.14;55.02;100159.53;4862459;29;20137;-79
2022/09/12 10:40:28;;;;;;;29.88;17.55;;;;;;;15.26;55.15;100151.41;4842405;29;20042;-81
2022/09/12 10:42:59;;;;;;;30.52;16.80;;;;;;;15.32;55.33;100137.28;4842675;29;20514;-81
2022/09/12 10:45:36;;;;;;;29.95;15.75;;;;;;;15.29;53.89;100148.72;4858040;29;20060;-77
2022/09/12 10:48:28;;;;;;;27.55;16.67;;;;;;;15.31;53.96;100138.19;4858988;29;20175;-79
2022/09/12 10:50:55;;;;;;;27.10;17.15;;;;;;;15.40;53.54;100135.38;4860271;29;20040;-76
2022/09/12 10:53:39;;;;;;;26.80;16.35;;;;;;;15.25;53.11;100149.69;4861844;29;20050;-76
2022/09/12 10:56:19;;;;;;;31.00;17.05;;;;;;;15.15;52.99;100149.03;4861672;29;20077;-80
2022/09/12 10:58:48;;;;;;;32.65;17.48;;;;;;;15.17;53.15;100152.50;4860874;29;20080;-78
2022/09/12 11:01:41;;;;;;;27.77;17.00;;;;;;;15.29;53.36;100148.72;4857974;29;20052;-78
2022/09/12 11:04:07;;;;;;;30.42;16.80;;;;;;;15.31;52.96;100143.44;4848431;29;20062;-78
2022/09/12 11:07:00;;;;;;;28.05;17.48;;;;;;;15.36;52.83;100141.56;4861735;29;20093;-79
2022/09/12 11:09:30;;;;;;;27.00;15.75;;;;;;;15.22;51.74;100136.66;4822666;29;20042;-80
2022/09/12 11:12:44;;;;;;;26.65;16.58;;;;;;;15.14;52.12;100149.06;4851509;29;20124;-78
2022/09/12 11:15:10;;;;;;;27.77;16.52;;;;;;;15.18;52.30;100161.19;4837033;29;20132;-78
2022/09/12 11:18:09;;;;;;;29.48;16.00;;;;;;;15.11;51.58;100136.03;4851857;29;20201;-80
2022/09/12 11:21:10;;;;;;;30.58;17.00;;;;;;;14.94;51.95;100150.34;4817628;29;20065;-76
2022/09/12 11:23:58;;;;;;;27.53;16.70;;;;;;;15.00;52.61;100142.38;4857230;29;20049;-79
2022/09/12 11:26:46;;;;;;;30.65;16.63;;;;;;;15.28;51.83;100130.41;4860101;29;20084;-78
2022/09/12 11:29:30;;;;;;;27.70;16.48;;;;;;;15.08;51.48;100152.69;4856574;29;20613;-79
2022/09/12 11:32:35;;;;;;;29.38;15.65;;;;;;;14.96;51.70;100140.69;4857424;29;20098;-78
2022/09/12 11:35:26;;;;;;;30.75;15.95;;;;;;;14.96;51.21;100142.47;4856459;29;20061;-79
2022/09/12 11:38:20;;;;;;;25.52;16.08;;;;;;;14.98;51.71;100136.28;4856657;29;20279;-77
2022/09/12 11:40:54;;;;;;;27.45;16.00;;;;;;;14.91;50.97;100142.56;4882133;29;20041;-78
2022/09/12 11:43:57;;;;;;;32.10;16.58;;;;;;;14.83;51.20;100129.63;4860824;29;20072;-78